sensor_id;sensor_type;location;lat;lon;timestamp;P1;durP1;ratioP1;P2;durP2;ratioP2
489;SDS011;231;48.120;11.576;2023-09-08T00:00:38;14.00;;;13.30;;
489;SDS011;231;48.120;11.576;2023-09-08T00:03:05;15.20;;;14.40;;
489;SDS011;231;48.120;11.576;2023-09-08T00:05:32;12.63;;;11.97;;
489;SDS011;231;48.120;11.576;2023-09-08T00:08:00;13.57;;;12.80;;
489;SDS011;231;48.120;11.576;2023-09-08T00:10:27;14.00;;;13.30;;
489;SDS011;231;48.120;11.576;2023-09-08T00:12:53;14.43;;;13.73;;
489;SDS011;231;48.120;11.576;2023-09-08T00:15:20;14.43;;;13.73;;
489;SDS011;231;48.120;11.576;2023-09-08T00:17:47;15.47;;;14.67;;
489;SDS011;231;48.120;11.576;2023-09-08T00:20:14;15.17;;;14.37;;
489;SDS011;231;48.120;11.576;2023-09-08T00:22:41;14.80;;;14.03;;
489;SDS011;231;48.120;11.576;2023-09-08T00:25:09;13.40;;;12.70;;
489;SDS011;231;48.120;11.576;2023-09-08T00:27:36;14.10;;;13.50;;
489;SDS011;231;48.120;11.576;2023-09-08T00:30:03;18.67;;;14.00;;
489;SDS011;231;48.120;11.576;2023-09-08T00:32:31;17.60;;;13.60;;
489;SDS011;231;48.120;11.576;2023-09-08T00:34:58;15.33;;;14.27;;
489;SDS011;231;48.120;11.576;2023-09-08T00:37:24;13.50;;;12.80;;
489;SDS011;231;48.120;11.576;2023-09-08T00:39:51;13.60;;;12.90;;
489;SDS011;231;48.120;11.576;2023-09-08T00:42:19;17.40;;;15.20;;
489;SDS011;231;48.120;11.576;2023-09-08T00:44:46;13.10;;;12.40;;
489;SDS011;231;48.120;11.576;2023-09-08T00:47:14;14.30;;;13.60;;
489;SDS011;231;48.120;11.576;2023-09-08T00:49:40;13.87;;;13.17;;
489;SDS011;231;48.120;11.576;2023-09-08T00:52:07;13.57;;;12.87;;
489;SDS011;231;48.120;11.576;2023-09-08T00:54:34;14.13;;;13.43;;
489;SDS011;231;48.120;11.576;2023-09-08T00:57:01;12.97;;;12.27;;
489;SDS011;231;48.120;11.576;2023-09-08T00:59:30;13.30;;;12.60;;
489;SDS011;231;48.120;11.576;2023-09-08T01:01:58;14.50;;;13.80;;
489;SDS011;231;48.120;11.576;2023-09-08T01:04:25;12.97;;;12.27;;
489;SDS011;231;48.120;11.576;2023-09-08T01:06:52;13.90;;;13.20;;
489;SDS011;231;48.120;11.576;2023-09-08T01:09:19;13.20;;;12.50;;
489;SDS011;231;48.120;11.576;2023-09-08T01:11:46;13.73;;;13.03;;
489;SDS011;231;48.120;11.576;2023-09-08T01:14:13;11.87;;;11.27;;
489;SDS011;231;48.120;11.576;2023-09-08T01:16:44;14.80;;;13.30;;
489;SDS011;231;48.120;11.576;2023-09-08T01:19:12;11.67;;;11.07;;
489;SDS011;231;48.120;11.576;2023-09-08T01:21:52;14.20;;;12.67;;
489;SDS011;231;48.120;11.576;2023-09-08T01:27:40;11.63;;;11.03;;
489;SDS011;231;48.120;11.576;2023-09-08T01:30:11;12.47;;;11.87;;
489;SDS011;231;48.120;11.576;2023-09-08T01:32:39;12.50;;;11.60;;
489;SDS011;231;48.120;11.576;2023-09-08T01:35:07;13.00;;;12.30;;
489;SDS011;231;48.120;11.576;2023-09-08T01:37:35;13.50;;;12.80;;
489;SDS011;231;48.120;11.576;2023-09-08T01:40:02;11.77;;;10.83;;
489;SDS011;231;48.120;11.576;2023-09-08T01:42:29;12.57;;;11.93;;
489;SDS011;231;48.120;11.576;2023-09-08T01:44:57;12.80;;;12.10;;
489;SDS011;231;48.120;11.576;2023-09-08T01:47:25;12.73;;;12.03;;
489;SDS011;231;48.120;11.576;2023-09-08T01:49:53;12.93;;;12.23;;
489;SDS011;231;48.120;11.576;2023-09-08T01:52:20;14.30;;;13.60;;
489;SDS011;231;48.120;11.576;2023-09-08T01:54:47;11.03;;;10.43;;
489;SDS011;231;48.120;11.576;2023-09-08T01:57:14;13.67;;;12.97;;
489;SDS011;231;48.120;11.576;2023-09-08T01:59:41;12.70;;;11.97;;
489;SDS011;231;48.120;11.576;2023-09-08T02:02:11;14.30;;;13.60;;
489;SDS011;231;48.120;11.576;2023-09-08T02:04:37;13.27;;;12.57;;
489;SDS011;231;48.120;11.576;2023-09-08T02:07:04;12.03;;;11.43;;
489;SDS011;231;48.120;11.576;2023-09-08T02:09:31;14.00;;;13.30;;
489;SDS011;231;48.120;11.576;2023-09-08T02:11:58;13.30;;;12.60;;
489;SDS011;231;48.120;11.576;2023-09-08T02:14:25;13.03;;;12.33;;
489;SDS011;231;48.120;11.576;2023-09-08T02:16:52;12.97;;;12.27;;
489;SDS011;231;48.120;11.576;2023-09-08T02:19:20;13.40;;;12.70;;
489;SDS011;231;48.120;11.576;2023-09-08T02:21:47;12.90;;;12.20;;
489;SDS011;231;48.120;11.576;2023-09-08T02:24:14;13.13;;;12.43;;
489;SDS011;231;48.120;11.576;2023-09-08T02:26:41;13.23;;;12.53;;
489;SDS011;231;48.120;11.576;2023-09-08T02:29:08;12.83;;;12.17;;
489;SDS011;231;48.120;11.576;2023-09-08T02:31:35;14.33;;;13.63;;
489;SDS011;231;48.120;11.576;2023-09-08T02:34:02;13.47;;;12.77;;
489;SDS011;231;48.120;11.576;2023-09-08T02:36:30;13.93;;;13.23;;
489;SDS011;231;48.120;11.576;2023-09-08T02:38:57;13.30;;;12.60;;
489;SDS011;231;48.120;11.576;2023-09-08T02:41:24;14.77;;;13.67;;
489;SDS011;231;48.120;11.576;2023-09-08T02:43:51;14.67;;;13.93;;
489;SDS011;231;48.120;11.576;2023-09-08T02:46:18;15.13;;;14.33;;
489;SDS011;231;48.120;11.576;2023-09-08T02:48:45;12.97;;;12.27;;
489;SDS011;231;48.120;11.576;2023-09-08T02:51:11;13.17;;;12.47;;
489;SDS011;231;48.120;11.576;2023-09-08T02:53:40;14.23;;;13.53;;
489;SDS011;231;48.120;11.576;2023-09-08T02:56:06;13.00;;;12.30;;
489;SDS011;231;48.120;11.576;2023-09-08T02:58:34;14.27;;;13.57;;
489;SDS011;231;48.120;11.576;2023-09-08T03:01:09;14.83;;;14.03;;
489;SDS011;231;48.120;11.576;2023-09-08T03:03:37;13.37;;;12.67;;
489;SDS011;231;48.120;11.576;2023-09-08T03:06:04;14.70;;;12.83;;
489;SDS011;231;48.120;11.576;2023-09-08T03:08:31;13.37;;;12.67;;
489;SDS011;231;48.120;11.576;2023-09-08T03:10:59;13.80;;;12.40;;
489;SDS011;231;48.120;11.576;2023-09-08T03:13:26;13.90;;;13.20;;
489;SDS011;231;48.120;11.576;2023-09-08T03:15:54;13.83;;;13.13;;
489;SDS011;231;48.120;11.576;2023-09-08T03:18:21;13.67;;;12.97;;
489;SDS011;231;48.120;11.576;2023-09-08T03:20:48;16.73;;;13.63;;
489;SDS011;231;48.120;11.576;2023-09-08T03:23:15;13.87;;;13.17;;
489;SDS011;231;48.120;11.576;2023-09-08T03:25:42;13.97;;;13.27;;
489;SDS011;231;48.120;11.576;2023-09-08T03:28:11;15.00;;;14.20;;
489;SDS011;231;48.120;11.576;2023-09-08T03:30:38;15.10;;;14.30;;
489;SDS011;231;48.120;11.576;2023-09-08T03:33:05;15.00;;;14.20;;
489;SDS011;231;48.120;11.576;2023-09-08T03:35:31;14.73;;;13.97;;
489;SDS011;231;48.120;11.576;2023-09-08T03:37:58;16.10;;;14.33;;
489;SDS011;231;48.120;11.576;2023-09-08T03:40:25;15.13;;;14.13;;
489;SDS011;231;48.120;11.576;2023-09-08T03:42:52;15.20;;;14.40;;
489;SDS011;231;48.120;11.576;2023-09-08T03:45:20;13.90;;;13.20;;
489;SDS011;231;48.120;11.576;2023-09-08T03:47:47;16.63;;;14.00;;
489;SDS011;231;48.120;11.576;2023-09-08T03:50:14;14.37;;;13.67;;
489;SDS011;231;48.120;11.576;2023-09-08T03:52:41;15.67;;;14.87;;
489;SDS011;231;48.120;11.576;2023-09-08T03:55:08;16.20;;;15.40;;
489;SDS011;231;48.120;11.576;2023-09-08T03:57:35;16.33;;;14.57;;
489;SDS011;231;48.120;11.576;2023-09-08T04:00:02;15.13;;;14.33;;
489;SDS011;231;48.120;11.576;2023-09-08T04:02:32;14.10;;;13.40;;
489;SDS011;231;48.120;11.576;2023-09-08T04:04:59;14.70;;;13.93;;
489;SDS011;231;48.120;11.576;2023-09-08T04:07:26;15.17;;;14.37;;
489;SDS011;231;48.120;11.576;2023-09-08T04:09:53;16.93;;;15.63;;
489;SDS011;231;48.120;11.576;2023-09-08T04:12:20;14.30;;;13.60;;
489;SDS011;231;48.120;11.576;2023-09-08T04:14:46;15.00;;;14.20;;
489;SDS011;231;48.120;11.576;2023-09-08T04:17:14;15.70;;;14.90;;
489;SDS011;231;48.120;11.576;2023-09-08T04:19:42;15.37;;;14.57;;
489;SDS011;231;48.120;11.576;2023-09-08T04:22:09;14.43;;;13.20;;
489;SDS011;231;48.120;11.576;2023-09-08T04:24:35;15.43;;;14.63;;
489;SDS011;231;48.120;11.576;2023-09-08T04:27:03;14.20;;;13.50;;
489;SDS011;231;48.120;11.576;2023-09-08T04:29:30;14.90;;;14.10;;
489;SDS011;231;48.120;11.576;2023-09-08T04:31:57;14.77;;;14.00;;
489;SDS011;231;48.120;11.576;2023-09-08T04:34:24;14.30;;;13.60;;
489;SDS011;231;48.120;11.576;2023-09-08T04:36:53;13.60;;;12.83;;
489;SDS011;231;48.120;11.576;2023-09-08T04:39:19;13.87;;;13.17;;
489;SDS011;231;48.120;11.576;2023-09-08T04:41:46;13.30;;;12.60;;
489;SDS011;231;48.120;11.576;2023-09-08T04:44:13;16.70;;;15.87;;
489;SDS011;231;48.120;11.576;2023-09-08T04:46:40;15.27;;;14.47;;
489;SDS011;231;48.120;11.576;2023-09-08T04:49:07;17.30;;;16.40;;
489;SDS011;231;48.120;11.576;2023-09-08T04:51:33;16.47;;;15.67;;
489;SDS011;231;48.120;11.576;2023-09-08T04:54:02;16.00;;;15.20;;
489;SDS011;231;48.120;11.576;2023-09-08T04:56:29;17.87;;;16.97;;
489;SDS011;231;48.120;11.576;2023-09-08T04:58:56;17.43;;;16.53;;
489;SDS011;231;48.120;11.576;2023-09-08T05:01:23;17.70;;;16.80;;
489;SDS011;231;48.120;11.576;2023-09-08T05:03:50;16.77;;;15.93;;
489;SDS011;231;48.120;11.576;2023-09-08T05:06:16;19.90;;;14.87;;
489;SDS011;231;48.120;11.576;2023-09-08T05:08:43;16.00;;;15.20;;
489;SDS011;231;48.120;11.576;2023-09-08T05:11:12;18.00;;;16.23;;
489;SDS011;231;48.120;11.576;2023-09-08T05:13:39;16.87;;;16.00;;
489;SDS011;231;48.120;11.576;2023-09-08T05:16:05;16.90;;;16.03;;
489;SDS011;231;48.120;11.576;2023-09-08T05:18:36;18.60;;;17.70;;
489;SDS011;231;48.120;11.576;2023-09-08T05:21:03;17.73;;;16.83;;
489;SDS011;231;48.120;11.576;2023-09-08T05:23:30;17.73;;;16.83;;
489;SDS011;231;48.120;11.576;2023-09-08T05:25:57;16.97;;;16.07;;
489;SDS011;231;48.120;11.576;2023-09-08T05:28:25;19.17;;;18.17;;
489;SDS011;231;48.120;11.576;2023-09-08T05:30:53;17.43;;;16.53;;
489;SDS011;231;48.120;11.576;2023-09-08T05:33:20;17.93;;;17.03;;
489;SDS011;231;48.120;11.576;2023-09-08T05:35:47;18.37;;;17.47;;
489;SDS011;231;48.120;11.576;2023-09-08T05:38:13;19.13;;;18.13;;
489;SDS011;231;48.120;11.576;2023-09-08T05:40:40;18.33;;;17.43;;
489;SDS011;231;48.120;11.576;2023-09-08T05:43:08;20.63;;;18.90;;
489;SDS011;231;48.120;11.576;2023-09-08T05:45:36;15.80;;;15.00;;
489;SDS011;231;48.120;11.576;2023-09-08T05:48:03;17.37;;;16.47;;
489;SDS011;231;48.120;11.576;2023-09-08T05:50:30;18.03;;;17.13;;
489;SDS011;231;48.120;11.576;2023-09-08T05:52:57;16.87;;;16.00;;
489;SDS011;231;48.120;11.576;2023-09-08T05:55:24;19.40;;;17.97;;
489;SDS011;231;48.120;11.576;2023-09-08T05:57:51;17.87;;;16.97;;
489;SDS011;231;48.120;11.576;2023-09-08T06:00:18;17.93;;;17.03;;
489;SDS011;231;48.120;11.576;2023-09-08T06:02:46;18.97;;;18.00;;
489;SDS011;231;48.120;11.576;2023-09-08T06:05:13;17.70;;;16.80;;
489;SDS011;231;48.120;11.576;2023-09-08T06:07:40;19.40;;;18.40;;
489;SDS011;231;48.120;11.576;2023-09-08T06:10:07;18.93;;;17.97;;
489;SDS011;231;48.120;11.576;2023-09-08T06:12:34;18.37;;;17.47;;
489;SDS011;231;48.120;11.576;2023-09-08T06:15:01;15.40;;;14.60;;
489;SDS011;231;48.120;11.576;2023-09-08T06:17:29;19.80;;;18.80;;
489;SDS011;231;48.120;11.576;2023-09-08T06:19:57;16.87;;;16.00;;
489;SDS011;231;48.120;11.576;2023-09-08T06:22:24;19.97;;;18.97;;
489;SDS011;231;48.120;11.576;2023-09-08T06:24:51;19.23;;;18.23;;
489;SDS011;231;48.120;11.576;2023-09-08T06:27:18;19.30;;;18.30;;
489;SDS011;231;48.120;11.576;2023-09-08T06:29:45;19.13;;;18.13;;
489;SDS011;231;48.120;11.576;2023-09-08T06:32:12;17.50;;;16.60;;
489;SDS011;231;48.120;11.576;2023-09-08T06:34:39;19.00;;;18.03;;
489;SDS011;231;48.120;11.576;2023-09-08T06:37:07;17.90;;;17.00;;
489;SDS011;231;48.120;11.576;2023-09-08T06:39:34;17.67;;;16.77;;
489;SDS011;231;48.120;11.576;2023-09-08T06:42:01;17.63;;;16.73;;
489;SDS011;231;48.120;11.576;2023-09-08T06:44:29;20.43;;;16.97;;
489;SDS011;231;48.120;11.576;2023-09-08T06:46:56;16.47;;;15.67;;
489;SDS011;231;48.120;11.576;2023-09-08T06:49:23;17.03;;;16.13;;
489;SDS011;231;48.120;11.576;2023-09-08T06:51:49;15.33;;;14.53;;
489;SDS011;231;48.120;11.576;2023-09-08T06:54:18;14.13;;;13.43;;
489;SDS011;231;48.120;11.576;2023-09-08T06:56:45;11.93;;;11.33;;
489;SDS011;231;48.120;11.576;2023-09-08T06:59:11;13.00;;;11.60;;
489;SDS011;231;48.120;11.576;2023-09-08T07:01:38;13.50;;;10.10;;
489;SDS011;231;48.120;11.576;2023-09-08T07:04:05;10.73;;;10.13;;
489;SDS011;231;48.120;11.576;2023-09-08T07:06:32;10.70;;;10.10;;
489;SDS011;231;48.120;11.576;2023-09-08T07:08:59;11.70;;;11.10;;
489;SDS011;231;48.120;11.576;2023-09-08T07:11:28;11.20;;;10.60;;
489;SDS011;231;48.120;11.576;2023-09-08T07:13:55;11.10;;;10.50;;
489;SDS011;231;48.120;11.576;2023-09-08T07:16:22;11.83;;;11.23;;
489;SDS011;231;48.120;11.576;2023-09-08T07:18:49;10.23;;;9.73;;
489;SDS011;231;48.120;11.576;2023-09-08T07:21:16;11.27;;;10.67;;
489;SDS011;231;48.120;11.576;2023-09-08T07:23:43;10.07;;;9.57;;
489;SDS011;231;48.120;11.576;2023-09-08T07:26:10;17.00;;;10.00;;
489;SDS011;231;48.120;11.576;2023-09-08T07:28:38;9.83;;;9.33;;
489;SDS011;231;48.120;11.576;2023-09-08T07:31:05;10.60;;;10.03;;
489;SDS011;231;48.120;11.576;2023-09-08T07:33:34;9.20;;;8.70;;
489;SDS011;231;48.120;11.576;2023-09-08T07:36:04;9.27;;;8.77;;
489;SDS011;231;48.120;11.576;2023-09-08T07:38:32;9.03;;;8.53;;
489;SDS011;231;48.120;11.576;2023-09-08T07:41:00;8.67;;;8.17;;
489;SDS011;231;48.120;11.576;2023-09-08T07:43:29;9.23;;;8.73;;
489;SDS011;231;48.120;11.576;2023-09-08T07:45:57;9.50;;;9.00;;
489;SDS011;231;48.120;11.576;2023-09-08T07:48:24;8.17;;;7.73;;
489;SDS011;231;48.120;11.576;2023-09-08T07:50:51;11.60;;;9.73;;
489;SDS011;231;48.120;11.576;2023-09-08T07:53:18;9.30;;;8.80;;
489;SDS011;231;48.120;11.576;2023-09-08T07:55:45;10.03;;;9.53;;
489;SDS011;231;48.120;11.576;2023-09-08T07:58:15;9.43;;;8.93;;
489;SDS011;231;48.120;11.576;2023-09-08T08:00:42;8.93;;;8.43;;
489;SDS011;231;48.120;11.576;2023-09-08T08:03:10;9.33;;;8.83;;
489;SDS011;231;48.120;11.576;2023-09-08T08:05:37;9.70;;;8.87;;
489;SDS011;231;48.120;11.576;2023-09-08T08:08:04;9.37;;;8.87;;
489;SDS011;231;48.120;11.576;2023-09-08T08:10:32;10.13;;;9.63;;
489;SDS011;231;48.120;11.576;2023-09-08T08:12:59;9.80;;;9.30;;
489;SDS011;231;48.120;11.576;2023-09-08T08:15:34;8.50;;;8.00;;
489;SDS011;231;48.120;11.576;2023-09-08T08:18:02;8.90;;;8.40;;
489;SDS011;231;48.120;11.576;2023-09-08T08:20:31;8.30;;;7.90;;
489;SDS011;231;48.120;11.576;2023-09-08T08:23:02;9.27;;;8.77;;
489;SDS011;231;48.120;11.576;2023-09-08T08:25:30;8.63;;;8.13;;
489;SDS011;231;48.120;11.576;2023-09-08T08:27:57;9.67;;;9.17;;
489;SDS011;231;48.120;11.576;2023-09-08T08:30:25;8.20;;;7.80;;
489;SDS011;231;48.120;11.576;2023-09-08T08:32:53;9.63;;;9.13;;
489;SDS011;231;48.120;11.576;2023-09-08T08:35:20;9.43;;;8.93;;
489;SDS011;231;48.120;11.576;2023-09-08T08:37:48;9.70;;;9.20;;
489;SDS011;231;48.120;11.576;2023-09-08T08:40:15;10.83;;;9.80;;
489;SDS011;231;48.120;11.576;2023-09-08T08:42:42;9.10;;;8.60;;
489;SDS011;231;48.120;11.576;2023-09-08T08:45:09;9.13;;;8.63;;
489;SDS011;231;48.120;11.576;2023-09-08T08:47:37;9.93;;;9.43;;
489;SDS011;231;48.120;11.576;2023-09-08T08:50:05;9.10;;;8.60;;
489;SDS011;231;48.120;11.576;2023-09-08T08:52:36;9.00;;;8.50;;
489;SDS011;231;48.120;11.576;2023-09-08T08:55:05;8.27;;;7.83;;
489;SDS011;231;48.120;11.576;2023-09-08T08:57:33;8.33;;;7.90;;
489;SDS011;231;48.120;11.576;2023-09-08T09:00:03;9.50;;;9.00;;
489;SDS011;231;48.120;11.576;2023-09-08T09:02:33;9.60;;;8.53;;
489;SDS011;231;48.120;11.576;2023-09-08T09:05:02;8.70;;;8.20;;
489;SDS011;231;48.120;11.576;2023-09-08T09:07:30;8.80;;;8.30;;
489;SDS011;231;48.120;11.576;2023-09-08T09:09:58;9.20;;;8.70;;
489;SDS011;231;48.120;11.576;2023-09-08T09:12:27;8.60;;;8.10;;
489;SDS011;231;48.120;11.576;2023-09-08T09:14:54;8.90;;;8.40;;
489;SDS011;231;48.120;11.576;2023-09-08T09:17:20;8.10;;;7.70;;
489;SDS011;231;48.120;11.576;2023-09-08T09:19:47;9.30;;;8.80;;
489;SDS011;231;48.120;11.576;2023-09-08T09:22:14;8.80;;;8.30;;
489;SDS011;231;48.120;11.576;2023-09-08T09:24:47;7.40;;;7.00;;
489;SDS011;231;48.120;11.576;2023-09-08T09:27:14;8.60;;;8.10;;
489;SDS011;231;48.120;11.576;2023-09-08T09:29:46;8.67;;;8.17;;
489;SDS011;231;48.120;11.576;2023-09-08T09:32:14;8.10;;;7.70;;
489;SDS011;231;48.120;11.576;2023-09-08T09:34:47;8.80;;;8.30;;
489;SDS011;231;48.120;11.576;2023-09-08T09:37:16;7.30;;;6.90;;
489;SDS011;231;48.120;11.576;2023-09-08T09:39:45;8.90;;;8.40;;
489;SDS011;231;48.120;11.576;2023-09-08T09:42:15;6.90;;;6.50;;
489;SDS011;231;48.120;11.576;2023-09-08T09:44:43;7.10;;;6.70;;
489;SDS011;231;48.120;11.576;2023-09-08T09:47:11;6.67;;;6.27;;
489;SDS011;231;48.120;11.576;2023-09-08T09:49:41;7.70;;;7.30;;
489;SDS011;231;48.120;11.576;2023-09-08T09:52:08;7.40;;;7.00;;
489;SDS011;231;48.120;11.576;2023-09-08T09:54:38;7.30;;;6.90;;
489;SDS011;231;48.120;11.576;2023-09-08T09:57:05;7.13;;;6.73;;
489;SDS011;231;48.120;11.576;2023-09-08T09:59:33;7.00;;;6.60;;
489;SDS011;231;48.120;11.576;2023-09-08T10:02:00;6.27;;;5.93;;
489;SDS011;231;48.120;11.576;2023-09-08T10:04:29;6.47;;;6.07;;
489;SDS011;231;48.120;11.576;2023-09-08T10:06:57;6.70;;;6.30;;
489;SDS011;231;48.120;11.576;2023-09-08T10:09:24;7.77;;;7.37;;
489;SDS011;231;48.120;11.576;2023-09-08T10:11:51;7.07;;;6.67;;
489;SDS011;231;48.120;11.576;2023-09-08T10:14:25;6.70;;;6.30;;
489;SDS011;231;48.120;11.576;2023-09-08T10:16:55;7.60;;;7.20;;
489;SDS011;231;48.120;11.576;2023-09-08T10:19:25;7.57;;;7.17;;
489;SDS011;231;48.120;11.576;2023-09-08T10:21:55;6.37;;;6.00;;
489;SDS011;231;48.120;11.576;2023-09-08T10:24:26;11.60;;;7.80;;
489;SDS011;231;48.120;11.576;2023-09-08T10:26:55;6.17;;;5.87;;
489;SDS011;231;48.120;11.576;2023-09-08T10:29:26;7.97;;;7.57;;
489;SDS011;231;48.120;11.576;2023-09-08T10:31:54;6.37;;;6.00;;
489;SDS011;231;48.120;11.576;2023-09-08T10:34:22;6.97;;;6.57;;
489;SDS011;231;48.120;11.576;2023-09-08T10:36:50;7.00;;;6.60;;
489;SDS011;231;48.120;11.576;2023-09-08T10:39:29;7.00;;;6.60;;
489;SDS011;231;48.120;11.576;2023-09-08T10:44:55;7.13;;;6.73;;
489;SDS011;231;48.120;11.576;2023-09-08T10:47:23;6.27;;;5.93;;
489;SDS011;231;48.120;11.576;2023-09-08T10:49:50;8.67;;;8.17;;
489;SDS011;231;48.120;11.576;2023-09-08T10:52:20;7.40;;;7.00;;
489;SDS011;231;48.120;11.576;2023-09-08T10:54:50;7.17;;;6.77;;
489;SDS011;231;48.120;11.576;2023-09-08T10:57:19;6.60;;;6.20;;
489;SDS011;231;48.120;11.576;2023-09-08T10:59:49;7.53;;;7.13;;
489;SDS011;231;48.120;11.576;2023-09-08T11:02:33;7.27;;;6.83;;
489;SDS011;231;48.120;11.576;2023-09-08T11:05:01;6.63;;;6.23;;
489;SDS011;231;48.120;11.576;2023-09-08T11:07:30;7.53;;;7.13;;
489;SDS011;231;48.120;11.576;2023-09-08T11:09:58;7.97;;;7.57;;
489;SDS011;231;48.120;11.576;2023-09-08T11:12:26;7.83;;;6.80;;
489;SDS011;231;48.120;11.576;2023-09-08T11:14:53;7.87;;;7.47;;
489;SDS011;231;48.120;11.576;2023-09-08T11:17:20;7.77;;;7.37;;
489;SDS011;231;48.120;11.576;2023-09-08T11:19:51;8.30;;;7.90;;
489;SDS011;231;48.120;11.576;2023-09-08T11:22:17;7.67;;;7.27;;
489;SDS011;231;48.120;11.576;2023-09-08T11:24:44;8.00;;;7.60;;
489;SDS011;231;48.120;11.576;2023-09-08T11:27:13;11.23;;;8.80;;
489;SDS011;231;48.120;11.576;2023-09-08T11:29:40;9.77;;;9.27;;
489;SDS011;231;48.120;11.576;2023-09-08T11:32:07;9.30;;;8.80;;
489;SDS011;231;48.120;11.576;2023-09-08T11:34:34;7.70;;;7.30;;
489;SDS011;231;48.120;11.576;2023-09-08T11:37:05;7.70;;;7.30;;
489;SDS011;231;48.120;11.576;2023-09-08T11:39:35;8.13;;;7.73;;
489;SDS011;231;48.120;11.576;2023-09-08T11:42:04;7.10;;;6.70;;
489;SDS011;231;48.120;11.576;2023-09-08T11:44:32;6.87;;;6.47;;
489;SDS011;231;48.120;11.576;2023-09-08T11:47:00;6.50;;;6.13;;
489;SDS011;231;48.120;11.576;2023-09-08T11:49:32;6.63;;;6.23;;
489;SDS011;231;48.120;11.576;2023-09-08T11:52:00;6.43;;;6.03;;
489;SDS011;231;48.120;11.576;2023-09-08T11:54:27;7.50;;;7.10;;
489;SDS011;231;48.120;11.576;2023-09-08T11:56:55;7.30;;;6.90;;
489;SDS011;231;48.120;11.576;2023-09-08T11:59:22;6.70;;;6.30;;
489;SDS011;231;48.120;11.576;2023-09-08T12:01:50;7.47;;;7.07;;
489;SDS011;231;48.120;11.576;2023-09-08T12:04:17;7.50;;;7.10;;
489;SDS011;231;48.120;11.576;2023-09-08T12:06:45;7.70;;;7.30;;
489;SDS011;231;48.120;11.576;2023-09-08T12:09:12;6.70;;;6.30;;
489;SDS011;231;48.120;11.576;2023-09-08T12:11:39;7.37;;;6.97;;
489;SDS011;231;48.120;11.576;2023-09-08T12:14:08;7.20;;;6.80;;
489;SDS011;231;48.120;11.576;2023-09-08T12:16:35;6.93;;;6.53;;
489;SDS011;231;48.120;11.576;2023-09-08T12:19:04;6.80;;;6.40;;
489;SDS011;231;48.120;11.576;2023-09-08T12:21:31;12.30;;;8.00;;
489;SDS011;231;48.120;11.576;2023-09-08T12:23:58;7.20;;;6.80;;
489;SDS011;231;48.120;11.576;2023-09-08T12:26:25;8.00;;;7.60;;
489;SDS011;231;48.120;11.576;2023-09-08T12:28:51;7.37;;;6.97;;
489;SDS011;231;48.120;11.576;2023-09-08T12:31:18;7.80;;;7.40;;
489;SDS011;231;48.120;11.576;2023-09-08T12:33:46;9.33;;;8.83;;
489;SDS011;231;48.120;11.576;2023-09-08T12:36:15;7.43;;;7.03;;
489;SDS011;231;48.120;11.576;2023-09-08T12:38:46;7.77;;;7.37;;
489;SDS011;231;48.120;11.576;2023-09-08T12:41:14;7.87;;;7.47;;
489;SDS011;231;48.120;11.576;2023-09-08T12:43:41;8.60;;;8.10;;
489;SDS011;231;48.120;11.576;2023-09-08T12:46:08;8.37;;;7.93;;
489;SDS011;231;48.120;11.576;2023-09-08T12:48:35;9.27;;;8.23;;
489;SDS011;231;48.120;11.576;2023-09-08T12:51:02;8.93;;;8.43;;
489;SDS011;231;48.120;11.576;2023-09-08T12:53:32;7.70;;;7.30;;
489;SDS011;231;48.120;11.576;2023-09-08T12:56:00;8.60;;;8.10;;
489;SDS011;231;48.120;11.576;2023-09-08T12:58:27;8.70;;;8.20;;
489;SDS011;231;48.120;11.576;2023-09-08T13:00:54;10.10;;;9.60;;
489;SDS011;231;48.120;11.576;2023-09-08T13:03:22;9.03;;;8.53;;
489;SDS011;231;48.120;11.576;2023-09-08T13:05:48;9.37;;;8.87;;
489;SDS011;231;48.120;11.576;2023-09-08T13:08:15;8.70;;;8.20;;
489;SDS011;231;48.120;11.576;2023-09-08T13:10:43;9.60;;;9.10;;
489;SDS011;231;48.120;11.576;2023-09-08T13:13:10;9.67;;;8.83;;
489;SDS011;231;48.120;11.576;2023-09-08T13:15:37;9.77;;;9.00;;
489;SDS011;231;48.120;11.576;2023-09-08T13:18:04;8.67;;;8.17;;
489;SDS011;231;48.120;11.576;2023-09-08T13:20:31;9.73;;;9.23;;
489;SDS011;231;48.120;11.576;2023-09-08T13:22:58;9.13;;;8.50;;
489;SDS011;231;48.120;11.576;2023-09-08T13:25:25;8.70;;;8.20;;
489;SDS011;231;48.120;11.576;2023-09-08T13:27:53;12.10;;;8.57;;
489;SDS011;231;48.120;11.576;2023-09-08T13:30:20;8.50;;;8.00;;
489;SDS011;231;48.120;11.576;2023-09-08T13:32:51;10.07;;;7.90;;
489;SDS011;231;48.120;11.576;2023-09-08T13:35:18;8.27;;;7.87;;
489;SDS011;231;48.120;11.576;2023-09-08T13:37:45;9.90;;;8.77;;
489;SDS011;231;48.120;11.576;2023-09-08T13:40:12;9.33;;;8.77;;
489;SDS011;231;48.120;11.576;2023-09-08T13:42:39;9.10;;;8.60;;
489;SDS011;231;48.120;11.576;2023-09-08T13:45:07;9.67;;;9.20;;
489;SDS011;231;48.120;11.576;2023-09-08T13:47:35;8.07;;;7.67;;
489;SDS011;231;48.120;11.576;2023-09-08T13:50:03;9.33;;;8.83;;
489;SDS011;231;48.120;11.576;2023-09-08T13:52:31;8.90;;;8.40;;
489;SDS011;231;48.120;11.576;2023-09-08T13:54:58;7.87;;;7.47;;
489;SDS011;231;48.120;11.576;2023-09-08T13:57:25;9.60;;;9.10;;
489;SDS011;231;48.120;11.576;2023-09-08T13:59:51;8.70;;;8.20;;
489;SDS011;231;48.120;11.576;2023-09-08T14:02:20;9.00;;;8.50;;
489;SDS011;231;48.120;11.576;2023-09-08T14:04:47;8.87;;;8.37;;
489;SDS011;231;48.120;11.576;2023-09-08T14:07:14;9.30;;;8.80;;
489;SDS011;231;48.120;11.576;2023-09-08T14:09:41;10.13;;;9.63;;
489;SDS011;231;48.120;11.576;2023-09-08T14:12:08;8.60;;;8.10;;
489;SDS011;231;48.120;11.576;2023-09-08T14:17:43;8.93;;;8.43;;
489;SDS011;231;48.120;11.576;2023-09-08T14:20:10;8.77;;;8.27;;
489;SDS011;231;48.120;11.576;2023-09-08T14:22:37;8.30;;;7.90;;
489;SDS011;231;48.120;11.576;2023-09-08T14:25:04;8.00;;;7.60;;
489;SDS011;231;48.120;11.576;2023-09-08T14:27:31;9.87;;;9.33;;
489;SDS011;231;48.120;11.576;2023-09-08T14:29:58;10.03;;;9.53;;
489;SDS011;231;48.120;11.576;2023-09-08T14:32:25;8.77;;;8.20;;
489;SDS011;231;48.120;11.576;2023-09-08T14:34:53;8.73;;;8.17;;
489;SDS011;231;48.120;11.576;2023-09-08T14:37:21;9.23;;;8.73;;
489;SDS011;231;48.120;11.576;2023-09-08T14:39:48;9.83;;;9.33;;
489;SDS011;231;48.120;11.576;2023-09-08T14:42:15;10.23;;;9.73;;
489;SDS011;231;48.120;11.576;2023-09-08T14:44:42;8.60;;;8.10;;
489;SDS011;231;48.120;11.576;2023-09-08T14:47:08;13.63;;;9.40;;
489;SDS011;231;48.120;11.576;2023-09-08T14:49:35;8.63;;;8.13;;
489;SDS011;231;48.120;11.576;2023-09-08T14:52:03;9.37;;;8.87;;
489;SDS011;231;48.120;11.576;2023-09-08T14:54:30;8.30;;;7.90;;
489;SDS011;231;48.120;11.576;2023-09-08T14:56:57;9.17;;;8.67;;
489;SDS011;231;48.120;11.576;2023-09-08T14:59:24;11.30;;;8.93;;
489;SDS011;231;48.120;11.576;2023-09-08T15:01:51;8.53;;;8.03;;
489;SDS011;231;48.120;11.576;2023-09-08T15:04:19;7.90;;;7.50;;
489;SDS011;231;48.120;11.576;2023-09-08T15:06:45;9.17;;;8.67;;
489;SDS011;231;48.120;11.576;2023-09-08T15:09:14;9.57;;;9.07;;
489;SDS011;231;48.120;11.576;2023-09-08T15:11:40;7.90;;;7.50;;
489;SDS011;231;48.120;11.576;2023-09-08T15:14:07;8.00;;;7.60;;
489;SDS011;231;48.120;11.576;2023-09-08T15:16:34;8.27;;;7.87;;
489;SDS011;231;48.120;11.576;2023-09-08T15:19:01;9.20;;;8.70;;
489;SDS011;231;48.120;11.576;2023-09-08T15:21:28;8.53;;;7.93;;
489;SDS011;231;48.120;11.576;2023-09-08T15:23:57;8.80;;;8.30;;
489;SDS011;231;48.120;11.576;2023-09-08T15:26:25;8.70;;;8.20;;